Time;durP1;ratioP1;P1;durP2;ratioP2;P2;SDS_P1;SDS_P2;PMS_P1;PMS_P2;Temp;Humidity;BMP_temperature;BMP_pressure;BME280_temperature;BME280_humidity;BME280_pressure;Samples;Min_cycle;Max_cycle;Signal;HPM_P1;HPM_P2
2022/10/25 00:03:00;;;;;;;18.45;14.40;;;;;;;14.51;100.00;98651.08;2021028;87;20986;-88
2022/10/25 00:06:01;;;;;;;20.92;14.43;;;;;;;14.46;100.00;98649.58;2020945;87;21581;-88
2022/10/25 00:09:02;;;;;;;18.23;14.85;;;;;;;14.44;100.00;98656.02;2020572;88;21030;-89
2022/10/25 00:12:02;;;;;;;17.52;14.75;;;;;;;14.46;100.00;98655.36;2020255;88;21060;-90
2022/10/25 00:15:03;;;;;;;19.75;14.63;;;;;;;14.46;100.00;98657.99;2020441;88;21108;-89
2022/10/25 00:18:04;;;;;;;17.20;13.00;;;;;;;14.43;100.00;98649.13;2020522;88;21003;-90
2022/10/25 00:21:04;;;;;;;19.75;14.95;;;;;;;14.46;100.00;98643.51;2020561;88;21038;-89
2022/10/25 00:24:05;;;;;;;19.30;15.05;;;;;;;14.45;100.00;98647.16;2020438;88;21058;-88
2022/10/25 00:27:06;;;;;;;19.30;15.72;;;;;;;14.45;100.00;98652.42;2034439;87;20997;-88
2022/10/25 00:30:07;;;;;;;20.62;15.40;;;;;;;14.44;100.00;98646.80;2040886;87;21087;-89
2022/10/25 00:33:07;;;;;;;27.27;17.05;;;;;;;14.47;100.00;98647.25;2054531;86;21064;-89
2022/10/25 00:36:08;;;;;;;26.07;17.40;;;;;;;14.44;100.00;98648.12;2060581;85;21473;-89
2022/10/25 00:39:09;;;;;;;22.93;16.37;;;;;;;14.45;100.00;98645.33;2047337;86;21037;-89
2022/10/25 00:42:10;;;;;;;29.00;17.37;;;;;;;14.46;100.00;98644.82;2017863;87;21082;-88
2022/10/25 00:45:10;;;;;;;23.32;16.05;;;;;;;14.47;100.00;98647.25;2037588;87;21013;-89
2022/10/25 00:48:11;;;;;;;22.25;17.07;;;;;;;14.48;100.00;98655.45;2026320;88;21037;-89
2022/10/25 00:51:12;;;;;;;22.58;16.62;;;;;;;14.47;100.00;98652.52;2026022;88;21529;-88
2022/10/25 00:54:13;;;;;;;23.20;17.37;;;;;;;14.50;100.00;98650.78;2037084;87;22269;-90
2022/10/25 00:57:13;;;;;;;23.87;16.02;;;;;;;14.48;100.00;98652.81;2035175;87;21049;-90
2022/10/25 01:00:14;;;;;;;23.52;15.98;;;;;;;14.47;100.00;98647.25;2034342;88;21011;-89
2022/10/25 01:03:15;;;;;;;22.87;15.83;;;;;;;14.47;100.00;98645.93;2034176;88;21033;-89
2022/10/25 01:06:15;;;;;;;23.55;16.70;;;;;;;14.50;100.00;98642.88;2034270;88;21049;-89
2022/10/25 01:09:16;;;;;;;28.07;17.95;;;;;;;14.54;100.00;98637.19;2034190;87;20973;-90
2022/10/25 01:12:17;;;;;;;24.12;17.10;;;;;;;14.58;100.00;98639.21;2034191;87;21584;-90
2022/10/25 01:15:18;;;;;;;21.45;16.42;;;;;;;14.57;100.00;98642.05;2034055;88;21624;-90
2022/10/25 01:18:18;;;;;;;23.38;17.45;;;;;;;14.56;100.00;98643.08;2034149;88;20974;-90
2022/10/25 01:21:19;;;;;;;22.13;16.37;;;;;;;14.62;100.00;98638.28;2034352;88;21040;-91
2022/10/25 01:24:20;;;;;;;21.82;16.20;;;;;;;14.65;100.00;98635.25;2034174;87;21061;-90
2022/10/25 01:27:21;;;;;;;24.23;17.65;;;;;;;14.60;100.00;98642.44;2034239;88;21049;-91
2022/10/25 01:30:21;;;;;;;22.48;17.67;;;;;;;14.58;100.00;98650.27;2035845;87;21100;-88
2022/10/25 01:33:22;;;;;;;23.45;17.67;;;;;;;14.56;100.00;98650.47;2034777;88;21006;-90
2022/10/25 01:36:23;;;;;;;21.60;16.52;;;;;;;14.56;100.00;98644.39;2034128;88;21056;-91
2022/10/25 01:39:23;;;;;;;19.98;15.98;;;;;;;14.54;100.00;98646.41;2034295;87;21077;-89
2022/10/25 01:42:24;;;;;;;19.37;16.07;;;;;;;14.54;100.00;98638.50;2035000;86;21017;-90
2022/10/25 01:45:25;;;;;;;20.25;14.73;;;;;;;14.51;100.00;98632.63;2069338;86;21000;-88
2022/10/25 01:48:25;;;;;;;18.57;14.05;;;;;;;14.50;100.00;98636.80;2070440;86;21012;-88
2022/10/25 01:51:27;;;;;;;18.42;14.07;;;;;;;14.47;100.00;98641.17;2055808;86;20994;-88
2022/10/25 01:54:28;;;;;;;18.40;13.62;;;;;;;14.45;100.00;98633.48;2022085;87;21066;-89
2022/10/25 01:57:29;;;;;;;19.32;13.55;;;;;;;14.46;100.00;98631.65;2010654;88;21537;-89
2022/10/25 02:00:29;;;;;;;13.95;12.50;;;;;;;14.44;100.00;98626.53;2031835;88;21045;-89
2022/10/25 02:03:30;;;;;;;16.20;12.65;;;;;;;14.42;100.00;98623.30;2012475;87;21006;-90
2022/10/25 02:06:31;;;;;;;18.42;13.30;;;;;;;14.35;100.00;98630.41;2033230;88;21084;-90
2022/10/25 02:09:31;;;;;;;16.52;12.65;;;;;;;14.29;100.00;98629.12;2040036;87;21017;-89
2022/10/25 02:12:32;;;;;;;14.90;13.10;;;;;;;14.22;100.00;98626.48;2024659;86;21015;-88
2022/10/25 02:15:33;;;;;;;17.50;13.05;;;;;;;14.17;100.00;98630.22;2034441;84;21000;-89
2022/10/25 02:18:33;;;;;;;21.05;13.65;;;;;;;14.13;100.00;98634.30;2043402;87;21515;-90
2022/10/25 02:21:34;;;;;;;17.85;13.72;;;;;;;14.07;100.00;98638.53;2043465;87;21517;-89
2022/10/25 02:24:35;;;;;;;18.00;14.50;;;;;;;13.99;100.00;98639.25;2045702;85;21041;-89
2022/10/25 02:27:35;;;;;;;21.87;14.20;;;;;;;13.93;100.00;98637.75;2045120;87;21029;-89
2022/10/25 02:30:36;;;;;;;18.48;14.98;;;;;;;13.90;100.00;98638.16;2043277;87;21029;-90
2022/10/25 02:33:37;;;;;;;20.45;15.85;;;;;;;13.87;100.00;98645.63;2043678;87;21099;-89
2022/10/25 02:36:38;;;;;;;22.17;16.12;;;;;;;13.84;100.00;98639.47;2043435;87;21005;-89
2022/10/25 02:39:39;;;;;;;25.00;16.15;;;;;;;13.82;100.00;98638.36;2066619;86;22181;-90
2022/10/25 02:42:40;;;;;;;21.77;16.32;;;;;;;13.85;100.00;98639.27;2078838;86;21036;-90
2022/10/25 02:45:40;;;;;;;23.35;16.57;;;;;;;13.86;100.00;98639.56;2082533;85;21043;-89
2022/10/25 02:48:41;;;;;;;22.90;15.85;;;;;;;13.89;100.00;98643.61;2084463;85;21038;-90
2022/10/25 02:51:42;;;;;;;23.32;16.20;;;;;;;13.89;100.00;98640.97;2067941;85;21052;-89
2022/10/25 02:54:42;;;;;;;22.48;16.67;;;;;;;13.88;100.00;98643.30;2043792;87;21001;-89
2022/10/25 02:57:43;;;;;;;24.92;17.32;;;;;;;13.86;100.00;98649.28;2043704;87;21033;-89
2022/10/25 03:00:44;;;;;;;23.77;16.85;;;;;;;13.86;100.00;98651.41;2043716;87;21061;-88
2022/10/25 03:03:45;;;;;;;21.87;15.43;;;;;;;13.84;100.00;98657.89;2043538;87;21070;-90
2022/10/25 03:06:45;;;;;;;23.27;16.57;;;;;;;13.83;100.00;98653.13;2054758;86;21035;-90
2022/10/25 03:09:46;;;;;;;24.32;16.17;;;;;;;13.80;100.00;98649.57;2082647;85;21511;-89
2022/10/25 03:12:47;;;;;;;23.62;16.80;;;;;;;13.80;100.00;98652.70;2084579;85;21590;-90
2022/10/25 03:15:47;;;;;;;22.60;16.57;;;;;;;13.78;100.00;98638.44;2084641;85;21527;-89
2022/10/25 03:18:48;;;;;;;25.20;17.48;;;;;;;13.78;100.00;98631.05;2084709;85;21019;-90
2022/10/25 03:21:49;;;;;;;22.67;16.70;;;;;;;13.72;100.00;98628.74;2055149;85;21029;-89
2022/10/25 03:24:50;;;;;;;27.85;16.90;;;;;;;13.68;100.00;98649.06;2046778;87;20997;-90
2022/10/25 03:27:50;;;;;;;24.52;17.32;;;;;;;13.60;100.00;98639.03;2046592;87;21045;-90
2022/10/25 03:30:51;;;;;;;23.52;17.37;;;;;;;13.54;100.00;98641.16;2044586;87;21165;-90
2022/10/25 03:33:52;;;;;;;26.02;16.75;;;;;;;13.43;100.00;98627.77;2043871;87;21041;-89
2022/10/25 03:36:52;;;;;;;23.52;17.57;;;;;;;13.35;100.00;98629.60;2043513;87;20934;-89
2022/10/25 03:39:53;;;;;;;26.17;17.95;;;;;;;13.32;100.00;98628.66;2045747;87;21532;-90
2022/10/25 03:42:54;;;;;;;25.25;17.45;;;;;;;13.30;100.00;98618.05;2034408;87;21034;-89
2022/10/25 03:45:55;;;;;;;26.10;17.60;;;;;;;13.24;100.00;98611.75;2016411;88;20983;-90
2022/10/25 03:48:55;;;;;;;27.45;18.32;;;;;;;13.20;100.00;98600.53;2014691;87;21022;-89
2022/10/25 03:51:56;;;;;;;28.85;18.45;;;;;;;13.16;100.00;98613.22;2012518;88;21493;-89
2022/10/25 03:54:57;;;;;;;28.23;19.40;;;;;;;13.12;100.00;98611.20;2012273;88;21542;-89
2022/10/25 03:57:57;;;;;;;31.82;20.40;;;;;;;13.07;100.00;98616.55;2012449;88;21022;-91
2022/10/25 04:00:58;;;;;;;26.55;17.77;;;;;;;13.02;100.00;98622.09;2030514;87;21024;-91
2022/10/25 04:03:59;;;;;;;34.03;19.73;;;;;;;12.98;100.00;98626.09;2049314;87;21074;-90
2022/10/25 04:07:00;;;;;;;30.95;20.50;;;;;;;12.91;100.00;98633.17;2049080;86;21020;-90
2022/10/25 04:10:00;;;;;;;30.35;19.98;;;;;;;12.87;100.00;98634.55;2026236;87;21002;-88
2022/10/25 04:13:01;;;;;;;30.75;21.00;;;;;;;12.84;100.00;98644.15;2019260;87;20995;-89
2022/10/25 04:16:02;;;;;;;32.95;21.42;;;;;;;12.75;100.00;98639.05;2014042;88;21134;-90
2022/10/25 04:19:03;;;;;;;29.23;19.20;;;;;;;12.69;100.00;98641.14;2015296;88;21043;-88
2022/10/25 04:22:04;;;;;;;31.40;19.85;;;;;;;12.67;100.00;98640.53;2037714;87;20961;-89
2022/10/25 04:25:05;;;;;;;37.98;22.75;;;;;;;12.66;100.00;98636.78;2049186;86;21020;-89
2022/10/25 04:28:05;;;;;;;32.40;21.35;;;;;;;12.64;100.00;98640.92;2049450;87;21045;-90
2022/10/25 04:31:09;;;;;;;37.58;22.48;;;;;;;12.66;100.00;98639.41;2042256;87;21057;-90
2022/10/25 04:34:09;;;;;;;36.20;22.22;;;;;;;12.71;100.00;98645.72;2049419;87;21141;-89
2022/10/25 04:37:09;;;;;;;40.25;23.87;;;;;;;12.77;100.00;98644.11;2048956;87;21085;-88
2022/10/25 04:40:10;;;;;;;36.17;22.20;;;;;;;12.83;100.00;98649.09;2049323;87;21036;-89
2022/10/25 04:43:11;;;;;;;35.83;21.35;;;;;;;12.88;100.00;98650.62;2024663;87;21599;-88
2022/10/25 04:46:13;;;;;;;37.15;21.45;;;;;;;12.93;100.00;98645.09;2034721;87;21080;-90
2022/10/25 04:49:14;;;;;;;38.48;23.38;;;;;;;12.99;100.00;98651.40;2035211;87;21078;-89
2022/10/25 04:52:15;;;;;;;40.43;25.48;;;;;;;13.03;100.00;98642.91;2059263;86;21531;-90
2022/10/25 04:55:16;;;;;;;40.98;23.80;;;;;;;13.08;100.00;98646.28;2072716;86;21527;-89
2022/10/25 04:58:17;;;;;;;36.95;23.00;;;;;;;13.09;100.00;98640.02;2072725;86;21004;-89
2022/10/25 05:01:17;;;;;;;32.90;21.82;;;;;;;13.12;100.00;98640.11;2060948;86;21592;-90
2022/10/25 05:04:18;;;;;;;38.80;23.47;;;;;;;13.14;100.00;98648.60;2035124;87;21525;-88
2022/10/25 05:07:19;;;;;;;36.73;23.18;;;;;;;13.15;100.00;98642.34;2035132;87;21057;-89
2022/10/25 05:10:20;;;;;;;34.73;21.68;;;;;;;13.17;100.00;98647.72;2034963;87;21081;-89
2022/10/25 05:13:21;;;;;;;36.77;21.73;;;;;;;13.18;100.00;98656.42;2038143;86;21073;-90
2022/10/25 05:16:23;;;;;;;31.68;21.20;;;;;;;13.17;100.00;98655.61;2035140;87;21085;-91
2022/10/25 05:19:23;;;;;;;33.30;21.73;;;;;;;13.17;100.00;98654.30;2036536;86;21110;-90
2022/10/25 05:22:24;;;;;;;34.73;20.95;;;;;;;13.16;100.00;98652.65;2058431;86;21476;-90
2022/10/25 05:25:25;;;;;;;33.53;21.77;;;;;;;13.18;100.00;98655.91;2072867;86;21023;-90
2022/10/25 05:28:26;;;;;;;34.45;20.72;;;;;;;13.18;100.00;98645.91;2072871;86;21024;-90
2022/10/25 05:31:26;;;;;;;31.02;20.97;;;;;;;13.18;100.00;98648.53;2072326;86;20973;-89
2022/10/25 05:34:27;;;;;;;32.42;21.00;;;;;;;13.21;100.00;98651.59;2072841;86;21088;-88
2022/10/25 05:37:28;;;;;;;32.78;21.17;;;;;;;13.24;100.00;98651.70;2072753;86;21539;-90
2022/10/25 05:40:29;;;;;;;31.30;21.05;;;;;;;13.26;100.00;98659.72;2072984;86;21001;-90
2022/10/25 05:43:29;;;;;;;33.02;20.48;;;;;;;13.26;100.00;98655.77;2055485;85;21595;-89
2022/10/25 05:46:30;;;;;;;28.75;19.85;;;;;;;13.25;100.00;98658.06;2049165;86;20970;-89
2022/10/25 05:49:33;;;;;;;30.43;21.00;;;;;;;13.24;100.00;98659.08;2049034;86;21017;-90
2022/10/25 05:52:33;;;;;;;29.02;20.45;;;;;;;13.26;100.00;98665.48;2031096;87;20942;-89
2022/10/25 05:55:35;;;;;;;28.80;18.82;;;;;;;13.26;100.00;98670.23;2012352;88;21007;-89
2022/10/25 05:58:36;;;;;;;28.87;20.95;;;;;;;13.27;100.00;98674.98;2011836;88;21569;-89
2022/10/25 06:01:37;;;;;;;29.37;18.87;;;;;;;13.27;100.00;98677.11;2021646;88;20964;-89
2022/10/25 06:04:37;;;;;;;28.92;20.08;;;;;;;13.29;100.00;98682.17;2000277;88;21082;-90
2022/10/25 06:07:38;;;;;;;28.25;19.77;;;;;;;13.35;100.00;98688.77;1998875;89;21048;-92
2022/10/25 06:10:39;;;;;;;30.45;20.05;;;;;;;13.41;100.00;98695.04;1998736;89;21586;-86
2022/10/25 06:13:40;;;;;;;25.70;18.23;;;;;;;13.41;100.00;98694.23;2035096;87;21065;-88
2022/10/25 06:16:41;;;;;;;26.95;18.00;;;;;;;13.44;100.00;98690.72;2048711;87;21049;-95
2022/10/25 06:19:42;;;;;;;28.95;20.00;;;;;;;13.46;100.00;98706.30;2051682;86;21029;-93
2022/10/25 06:22:42;;;;;;;26.35;18.62;;;;;;;13.51;100.00;98702.55;2021417;87;20967;-88
2022/10/25 06:25:43;;;;;;;24.90;18.20;;;;;;;13.57;100.00;98700.45;2045909;86;20981;-90
2022/10/25 06:28:44;;;;;;;26.30;19.42;;;;;;;13.68;100.00;98703.81;2049219;86;21057;-91
2022/10/25 06:31:44;;;;;;;28.42;19.90;;;;;;;13.79;100.00;98703.72;2049294;86;21512;-90
2022/10/25 06:34:45;;;;;;;23.80;18.42;;;;;;;13.90;100.00;98711.05;2044596;86;21005;-92
2022/10/25 06:37:46;;;;;;;24.77;18.65;;;;;;;14.02;100.00;98713.89;2031592;87;21504;-91
2022/10/25 06:40:47;;;;;;;26.68;18.32;;;;;;;14.13;100.00;98715.41;2050615;87;21020;-92
2022/10/25 06:43:47;;;;;;;23.92;17.52;;;;;;;14.23;100.00;98719.76;2051864;84;21053;-89
2022/10/25 06:46:48;;;;;;;24.23;16.07;;;;;;;14.33;100.00;98721.98;2027043;86;20979;-93
2022/10/25 06:49:49;;;;;;;25.62;17.05;;;;;;;14.42;100.00;98722.59;2023485;88;21031;-88
2022/10/25 06:52:50;;;;;;;21.97;16.23;;;;;;;14.47;100.00;98726.28;2021533;88;21038;-87
2022/10/25 06:55:50;;;;;;;21.07;14.00;;;;;;;14.53;100.00;98729.90;2047899;86;21467;-93
2022/10/25 06:58:51;;;;;;;21.82;14.25;;;;;;;14.60;100.00;98728.59;2044054;86;21018;-90
2022/10/25 07:01:53;;;;;;;20.97;14.75;;;;;;;14.69;100.00;98726.04;2020955;88;21002;-92
2022/10/25 07:04:54;;;;;;;20.50;13.15;;;;;;;14.83;100.00;98717.61;2021002;88;21514;-95
2022/10/25 07:07:55;;;;;;;17.23;12.95;;;;;;;14.92;100.00;98723.77;2021339;88;21117;-88
2022/10/25 07:10:56;;;;;;;16.82;12.50;;;;;;;15.03;100.00;98709.94;2039237;86;21000;-87
2022/10/25 07:13:57;;;;;;;15.40;11.90;;;;;;;15.15;100.00;98705.33;2041541;86;20990;-86
2022/10/25 07:16:58;;;;;;;15.15;11.80;;;;;;;15.23;100.00;98711.69;2044172;86;21084;-89
2022/10/25 07:19:59;;;;;;;21.02;12.55;;;;;;;15.24;100.00;98715.43;2061203;86;21081;-89
2022/10/25 07:22:59;;;;;;;14.68;10.98;;;;;;;15.25;100.00;98714.41;2060969;86;21025;-93
2022/10/25 07:26:00;;;;;;;16.90;11.05;;;;;;;15.22;100.00;98718.80;2057791;86;21007;-91
2022/10/25 07:29:02;;;;;;;14.13;11.05;;;;;;;15.17;100.00;98715.16;2032089;86;22123;-90
2022/10/25 07:32:02;;;;;;;15.48;11.33;;;;;;;15.14;100.00;98725.62;2060620;86;20989;-90
2022/10/25 07:35:03;;;;;;;17.98;10.98;;;;;;;15.13;100.00;98725.83;2061130;86;21067;-90
2022/10/25 07:38:04;;;;;;;14.07;11.55;;;;;;;15.13;100.00;98724.52;2054444;86;21560;-90
2022/10/25 07:41:05;;;;;;;18.85;12.13;;;;;;;15.12;100.00;98732.12;2060829;86;21021;-92
2022/10/25 07:44:05;;;;;;;15.38;10.78;;;;;;;15.08;100.00;98729.88;2069399;86;21071;-86
2022/10/25 07:47:06;;;;;;;12.63;11.20;;;;;;;15.10;100.00;98732.34;2050234;85;20954;-88
2022/10/25 07:50:07;;;;;;;13.08;10.28;;;;;;;15.14;100.00;98735.36;2024759;87;21014;-89
2022/10/25 07:53:08;;;;;;;12.25;10.28;;;;;;;15.18;100.00;98745.78;2028944;87;21046;-88
2022/10/25 07:56:08;;;;;;;11.33;9.63;;;;;;;15.22;100.00;98742.53;2021581;88;21554;-89
2022/10/25 07:59:09;;;;;;;12.43;9.60;;;;;;;15.25;100.00;98747.89;2036924;87;21064;-85
2022/10/25 08:02:10;;;;;;;9.80;8.50;;;;;;;15.32;100.00;98756.09;2042386;86;21001;-87
2022/10/25 08:05:11;;;;;;;12.28;9.38;;;;;;;15.42;100.00;98749.55;2043516;86;21072;-91
2022/10/25 08:08:12;;;;;;;10.58;8.25;;;;;;;15.57;100.00;98755.38;2043708;87;21029;-91
2022/10/25 08:11:12;;;;;;;11.85;8.58;;;;;;;15.69;100.00;98756.36;2063898;84;21508;-92
2022/10/25 08:14:13;;;;;;;10.30;7.92;;;;;;;15.82;100.00;98753.66;2076415;85;21121;-90
2022/10/25 08:17:16;;;;;;;9.13;7.58;;;;;;;15.97;100.00;98757.83;2083060;85;20968;-93
2022/10/25 08:20:16;;;;;;;10.20;7.45;;;;;;;16.10;100.00;98751.16;2071654;84;21537;-89
2022/10/25 08:23:17;;;;;;;9.95;7.67;;;;;;;16.26;100.00;98752.44;2048324;85;21099;-91
2022/10/25 08:26:23;;;;;;;8.28;6.25;;;;;;;16.41;100.00;98756.90;2045062;87;21013;-91
2022/10/25 08:29:21;;;;;;;7.67;6.97;;;;;;;16.56;100.00;98757.91;2044052;85;21056;-92
2022/10/25 08:32:21;;;;;;;8.25;7.50;;;;;;;16.63;100.00;98752.03;2043444;87;21053;-94
2022/10/25 08:35:22;;;;;;;8.85;6.42;;;;;;;16.66;100.00;98751.61;2045065;86;21513;-92
2022/10/25 08:38:23;;;;;;;8.85;6.50;;;;;;;16.74;100.00;98755.33;2045873;87;21076;-93
2022/10/25 08:41:23;;;;;;;6.37;5.78;;;;;;;16.81;100.00;98753.41;2046119;87;21548;-93
2022/10/25 08:44:24;;;;;;;8.83;6.50;;;;;;;16.89;100.00;98754.45;2035898;87;21066;-92
2022/10/25 08:47:26;;;;;;;8.20;5.67;;;;;;;16.98;100.00;98762.91;2027327;88;21058;-91
2022/10/25 08:50:26;;;;;;;8.05;6.10;;;;;;;17.01;100.00;98765.13;2022663;88;21023;-92
2022/10/25 08:53:27;;;;;;;8.63;6.08;;;;;;;17.02;100.00;98754.33;2014994;88;21101;-92
2022/10/25 08:56:28;;;;;;;7.85;6.72;;;;;;;17.05;100.00;98755.20;2014861;88;21023;-92
2022/10/25 08:59:29;;;;;;;7.03;6.33;;;;;;;17.03;100.00;98757.27;2014910;87;21514;-92
2022/10/25 09:02:29;;;;;;;10.53;6.67;;;;;;;17.05;100.00;98761.01;2014716;88;21062;-93
2022/10/25 09:05:30;;;;;;;11.38;7.58;;;;;;;17.10;100.00;98756.36;2014753;88;21025;-91
2022/10/25 09:08:31;;;;;;;7.60;6.65;;;;;;;17.14;100.00;98746.45;2014809;88;21086;-92
2022/10/25 09:11:32;;;;;;;6.97;6.15;;;;;;;17.25;100.00;98755.48;2014613;88;21118;-92
2022/10/25 09:14:33;;;;;;;7.87;6.12;;;;;;;17.23;100.00;98753.59;2014761;88;21034;-91
2022/10/25 09:17:33;;;;;;;11.25;6.55;;;;;;;17.16;100.00;98760.78;2014719;88;21026;-91
2022/10/25 09:20:34;;;;;;;10.63;7.12;;;;;;;17.12;100.00;98764.39;2014657;88;21038;-91
2022/10/25 09:23:35;;;;;;;6.45;5.80;;;;;;;17.11;100.00;98766.75;2014894;88;21103;-92
2022/10/25 09:26:36;;;;;;;8.10;6.50;;;;;;;17.13;100.00;98768.66;2014716;88;21053;-92
2022/10/25 09:29:36;;;;;;;6.90;5.80;;;;;;;17.20;100.00;98760.14;2014753;88;21007;-92
2022/10/25 09:32:37;;;;;;;8.80;5.87;;;;;;;17.22;100.00;98768.66;2014844;88;21113;-91
2022/10/25 09:35:38;;;;;;;7.65;6.85;;;;;;;17.25;100.00;98764.75;2014779;88;21051;-92
2022/10/25 09:38:39;;;;;;;7.25;6.25;;;;;;;17.21;100.00;98763.08;2014950;88;22179;-92
2022/10/25 09:41:40;;;;;;;7.90;6.42;;;;;;;17.16;100.00;98762.91;2014821;88;21041;-93
2022/10/25 09:44:40;;;;;;;10.35;6.42;;;;;;;17.06;100.00;98770.55;2014433;87;21066;-92
2022/10/25 09:47:42;;;;;;;10.08;6.45;;;;;;;17.05;100.00;98772.39;2014773;88;21006;-91
2022/10/25 09:50:42;;;;;;;7.85;5.97;;;;;;;17.03;100.00;98767.84;2019599;88;21513;-92
2022/10/25 09:53:43;;;;;;;9.55;5.95;;;;;;;16.96;100.00;98766.29;2028643;88;21073;-91
2022/10/25 09:56:44;;;;;;;7.33;5.65;;;;;;;16.92;100.00;98771.22;2028835;87;21029;-92
2022/10/25 09:59:45;;;;;;;7.37;6.10;;;;;;;16.88;100.00;98766.57;2028970;88;21021;-90
2022/10/25 10:02:46;;;;;;;9.25;5.78;;;;;;;16.84;100.00;98770.18;2029382;88;21018;-91
2022/10/25 10:05:46;;;;;;;9.93;6.00;;;;;;;16.81;100.00;98761.86;2029341;88;21014;-91
2022/10/25 10:08:47;;;;;;;6.80;5.87;;;;;;;16.78;100.00;98761.78;2028897;86;21494;-91
2022/10/25 10:11:48;;;;;;;5.87;5.40;;;;;;;16.72;100.00;98765.29;2028857;88;21075;-92
2022/10/25 10:14:49;;;;;;;7.35;5.92;;;;;;;16.64;100.00;98766.37;2028781;86;21025;-92
2022/10/25 10:17:50;;;;;;;6.62;5.85;;;;;;;16.56;100.00;98765.32;2028811;88;21017;-92
2022/10/25 10:20:50;;;;;;;11.68;6.90;;;;;;;16.48;100.00;98768.23;2028880;88;21029;-92
2022/10/25 10:23:51;;;;;;;7.47;6.33;;;;;;;16.40;100.00;98771.14;2028851;87;21054;-91
2022/10/25 10:26:54;;;;;;;10.58;5.87;;;;;;;16.33;100.00;98772.50;2028604;88;21497;-92
2022/10/25 10:29:56;;;;;;;8.18;6.25;;;;;;;16.28;100.00;98778.96;2027912;88;21057;-94
2022/10/25 10:32:57;;;;;;;6.42;5.62;;;;;;;16.23;100.00;98768.73;2028141;88;20994;-91
2022/10/25 10:35:57;;;;;;;8.88;6.45;;;;;;;16.12;100.00;98769.72;2028960;88;20959;-91
2022/10/25 10:38:58;;;;;;;11.83;6.50;;;;;;;16.09;100.00;98771.95;2030342;88;21062;-91
2022/10/25 10:42:02;;;;;;;12.35;8.05;;;;;;;16.07;100.00;98766.89;2029179;88;21050;-91
2022/10/25 10:45:02;;;;;;;6.62;5.97;;;;;;;16.07;100.00;98764.25;2027059;88;21094;-91
2022/10/25 10:48:03;;;;;;;7.47;6.58;;;;;;;16.05;100.00;98764.98;2014801;88;21042;-92
2022/10/25 10:51:04;;;;;;;11.60;7.50;;;;;;;16.01;100.00;98766.95;2014581;88;21490;-91
2022/10/25 10:54:05;;;;;;;11.73;6.67;;;;;;;15.94;100.00;98760.39;2015726;88;20995;-90
2022/10/25 10:57:05;;;;;;;13.32;8.20;;;;;;;15.85;100.00;98771.70;2015469;88;20964;-92
2022/10/25 11:00:06;;;;;;;9.13;7.28;;;;;;;15.79;100.00;98772.55;2014496;88;21023;-91
2022/10/25 11:03:07;;;;;;;6.72;6.03;;;;;;;15.80;100.00;98768.88;2015175;88;20963;-91
2022/10/25 11:06:08;;;;;;;9.40;6.17;;;;;;;15.87;100.00;98770.17;2014944;88;21026;-91
2022/10/25 11:09:09;;;;;;;10.43;6.70;;;;;;;15.93;100.00;98765.38;2014873;87;20994;-92
2022/10/25 11:12:09;;;;;;;8.90;6.42;;;;;;;15.99;100.00;98759.73;2014861;88;21054;-91
2022/10/25 11:15:10;;;;;;;11.83;6.72;;;;;;;16.12;100.00;98767.59;2014918;88;21100;-92
2022/10/25 11:18:11;;;;;;;5.45;4.95;;;;;;;16.28;100.00;98772.36;2015071;88;21110;-91
2022/10/25 11:21:11;;;;;;;6.95;5.50;;;;;;;16.49;100.00;98765.88;2015743;87;21006;-91
2022/10/25 11:24:12;;;;;;;6.58;5.55;;;;;;;16.72;100.00;98758.69;2016738;88;21042;-90
2022/10/25 11:27:13;;;;;;;8.63;6.00;;;;;;;16.99;100.00;98760.55;2016135;88;21041;-90
2022/10/25 11:30:14;;;;;;;8.45;7.30;;;;;;;17.29;100.00;98761.98;2014840;88;21051;-91
2022/10/25 11:33:15;;;;;;;6.60;5.78;;;;;;;17.53;100.00;98762.89;2014871;88;21034;-91
2022/10/25 11:36:15;;;;;;;7.78;6.03;;;;;;;17.74;100.00;98762.94;2015033;88;21027;-91
2022/10/25 11:39:16;;;;;;;9.58;6.60;;;;;;;17.72;100.00;98765.82;2015062;88;20972;-92
2022/10/25 11:42:17;;;;;;;10.10;5.25;;;;;;;17.73;100.00;98766.11;2014604;87;21106;-91
2022/10/25 11:45:18;;;;;;;5.47;3.98;;;;;;;17.67;100.00;98768.84;2014427;87;21643;-91
2022/10/25 11:48:19;;;;;;;4.78;3.75;;;;;;;17.62;100.00;98769.49;2027988;88;21026;-89
2022/10/25 11:51:19;;;;;;;6.40;3.27;;;;;;;17.54;100.00;98768.47;2028281;88;20987;-91
2022/10/25 11:54:20;;;;;;;5.67;3.80;;;;;;;17.47;100.00;98763.80;2028858;88;21062;-90
2022/10/25 11:57:21;;;;;;;4.62;3.90;;;;;;;17.50;100.00;98764.67;2026485;88;21631;-91
2022/10/25 12:00:22;;;;;;;6.22;4.80;;;;;;;17.54;100.00;98760.53;2026324;88;21108;-89
2022/10/25 12:03:23;;;;;;;7.83;4.17;;;;;;;17.53;100.00;98764.21;2026306;88;21470;-89
2022/10/25 12:06:23;;;;;;;3.85;3.47;;;;;;;17.52;100.00;98770.54;2026459;88;21014;-86
2022/10/25 12:09:24;;;;;;;8.65;3.92;;;;;;;17.52;100.00;98768.70;2026421;88;21510;-87
2022/10/25 12:12:25;;;;;;;4.72;3.58;;;;;;;17.51;100.00;98765.77;2026438;88;21038;-91
2022/10/25 12:15:26;;;;;;;7.78;4.17;;;;;;;17.47;100.00;98762.48;2027629;88;21129;-90
2022/10/25 12:18:26;;;;;;;9.10;4.25;;;;;;;17.37;100.00;98764.81;2027319;88;21010;-89
2022/10/25 12:24:30;;;;;;;5.65;3.37;;;;;;;17.29;100.00;98760.13;1985797;89;21109;-89
2022/10/25 12:27:31;;;;;;;4.17;2.98;;;;;;;17.35;100.00;98752.61;1985746;90;21065;-89
2022/10/25 12:30:33;;;;;;;3.98;3.05;;;;;;;17.55;100.00;98756.84;2007362;86;21095;-91
2022/10/25 12:33:34;;;;;;;5.85;3.37;;;;;;;17.83;100.00;98750.52;1985297;90;21154;-93
2022/10/25 12:36:35;;;;;;;3.85;3.55;;;;;;;18.03;100.00;98755.52;1985952;90;21109;-93
2022/10/25 12:39:39;;;;;;;4.83;3.37;;;;;;;18.09;100.00;98762.55;1985077;90;21079;-90
2022/10/25 12:42:38;;;;;;;9.05;3.35;;;;;;;18.03;100.00;98778.05;1984803;90;21113;-89
2022/10/25 12:45:39;;;;;;;3.55;2.08;;;;;;;17.82;100.00;98788.60;1985294;88;21142;-94
2022/10/25 12:48:40;;;;;;;6.70;2.08;;;;;;;17.45;100.00;98814.80;1985347;90;21653;-95
2022/10/25 12:51:41;;;;;;;5.47;1.65;;;;;;;16.67;100.00;98814.83;1985620;90;21057;-92
2022/10/25 12:54:41;;;;;;;4.80;2.00;;;;;;;16.01;100.00;98812.66;1985229;90;21060;-89
2022/10/25 12:57:42;;;;;;;5.45;1.57;;;;;;;15.56;100.00;98802.59;1985289;90;20970;-93
2022/10/25 13:00:43;;;;;;;2.50;2.30;;;;;;;15.29;100.00;98811.91;1985810;90;21544;-89
2022/10/25 13:03:44;;;;;;;4.83;2.70;;;;;;;15.10;100.00;98818.55;1985203;90;21025;-89
2022/10/25 13:06:44;;;;;;;5.58;2.72;;;;;;;14.91;100.00;98813.61;1984980;90;21046;-89
2022/10/25 13:09:45;;;;;;;3.55;2.67;;;;;;;14.78;100.00;98807.83;1984984;90;21599;-89
2022/10/25 13:12:46;;;;;;;4.17;2.70;;;;;;;14.78;100.00;98808.64;1984833;90;21516;-87
2022/10/25 13:15:47;;;;;;;4.08;2.20;;;;;;;14.89;100.00;98810.34;1984656;90;21335;-87
2022/10/25 13:18:50;;;;;;;2.65;1.90;;;;;;;15.02;100.00;98815.11;1984374;90;21156;-88
2022/10/25 13:21:51;;;;;;;3.22;2.10;;;;;;;15.19;100.00;98812.04;2016686;88;21568;-87
2022/10/25 13:24:52;;;;;;;5.15;2.30;;;;;;;15.32;100.00;98810.67;2025917;88;21026;-88
2022/10/25 13:27:53;;;;;;;8.58;2.52;;;;;;;15.40;100.00;98812.28;2025793;88;21053;-87
2022/10/25 13:30:55;;;;;;;3.02;2.83;;;;;;;15.44;100.00;98805.05;2025911;88;21597;-85
2022/10/25 13:33:56;;;;;;;4.50;2.75;;;;;;;15.45;100.00;98805.85;2026030;88;21078;-87
2022/10/25 13:36:57;;;;;;;3.50;2.87;;;;;;;15.45;100.00;98815.09;2025705;88;21073;-85
2022/10/25 13:39:58;;;;;;;4.08;3.77;;;;;;;15.43;100.00;98813.17;2026000;86;21109;-89
2022/10/25 13:42:59;;;;;;;9.45;6.60;;;;;;;15.41;100.00;98819.17;2026081;86;21082;-88
2022/10/25 13:45:59;;;;;;;30.10;24.70;;;;;;;15.39;100.00;98821.22;2025930;86;21624;-89
2022/10/25 13:49:00;;;;;;;93.10;72.67;;;;;;;15.34;100.00;98822.63;2037383;87;21002;-90
2022/10/25 13:52:03;;;;;;;94.10;70.87;;;;;;;15.29;100.00;98826.92;2037360;87;21360;-90